createdAt,value
2023-03-06T00:00:07.504Z,25.33
2023-03-06T00:02:33.904Z,25.58
2023-03-06T00:05:00.319Z,26.16
2023-03-06T00:07:26.697Z,26.23
2023-03-06T00:09:53.065Z,25.09
2023-03-06T00:12:19.414Z,24.87
2023-03-06T00:14:45.788Z,25.55
2023-03-06T00:17:12.168Z,24.84
2023-03-06T00:19:38.549Z,25.55
2023-03-06T00:22:04.946Z,25.52
2023-03-06T00:24:31.352Z,24.58
2023-03-06T00:26:57.721Z,24.87
2023-03-06T00:29:24.064Z,24.74
2023-03-06T00:31:50.535Z,25.91
2023-03-06T00:34:16.946Z,24.73
2023-03-06T00:36:43.316Z,24.77
2023-03-06T00:39:09.704Z,23.97
2023-03-06T00:41:36.100Z,23.67
2023-03-06T00:44:02.455Z,25.65
2023-03-06T00:46:28.815Z,25.32
2023-03-06T00:48:55.216Z,24.42
2023-03-06T00:51:21.606Z,23.52
2023-03-06T00:53:47.974Z,25.24
2023-03-06T00:56:14.594Z,26.24
2023-03-06T00:58:40.960Z,27.25
2023-03-06T01:01:07.400Z,27.16
2023-03-06T01:03:33.775Z,26.45
2023-03-06T01:06:00.183Z,26.42
2023-03-06T01:08:26.575Z,27.45
2023-03-06T01:10:52.998Z,28.22
2023-03-06T01:13:19.353Z,27.56
2023-03-06T01:15:45.732Z,27.56
2023-03-06T01:18:12.099Z,27.70
2023-03-06T01:20:38.485Z,27.50
2023-03-06T01:23:04.886Z,28.31
2023-03-06T01:25:31.255Z,28.26
2023-03-06T01:27:57.607Z,27.10
2023-03-06T01:30:23.993Z,27.39
2023-03-06T01:32:50.389Z,27.62
2023-03-06T01:35:16.754Z,27.26
2023-03-06T01:37:43.168Z,28.38
2023-03-06T01:40:09.569Z,27.30
2023-03-06T01:42:35.993Z,26.45
2023-03-06T01:45:02.375Z,26.04
2023-03-06T01:47:28.741Z,27.10
2023-03-06T01:49:55.143Z,26.34
2023-03-06T01:52:21.598Z,26.54
2023-03-06T01:54:48.001Z,27.25
2023-03-06T01:57:14.358Z,26.78
2023-03-06T01:59:40.742Z,27.95
2023-03-06T02:02:07.145Z,28.37
2023-03-06T02:04:33.503Z,27.33
2023-03-06T02:06:59.904Z,26.81
2023-03-06T02:09:26.276Z,27.02
2023-03-06T02:11:52.670Z,26.25
2023-03-06T02:14:19.050Z,26.79
2023-03-06T02:16:45.493Z,27.57
2023-03-06T02:19:11.898Z,26.54
2023-03-06T02:21:38.259Z,26.25
2023-03-06T02:24:04.646Z,25.67
2023-03-06T02:26:31.058Z,26.99
2023-03-06T02:28:57.542Z,25.84
2023-03-06T02:31:23.945Z,26.33
2023-03-06T02:33:50.303Z,26.06
2023-03-06T02:36:16.646Z,26.05
2023-03-06T02:38:43.044Z,25.48
2023-03-06T02:41:09.460Z,25.65
2023-03-06T02:43:35.866Z,27.08
2023-03-06T02:46:02.296Z,27.20
2023-03-06T02:48:28.771Z,27.72
2023-03-06T02:50:55.126Z,27.91
2023-03-06T02:53:21.487Z,27.32
2023-03-06T02:55:47.891Z,27.49
2023-03-06T02:58:14.252Z,27.86
2023-03-06T03:00:40.628Z,27.16
2023-03-06T03:03:07.014Z,28.48
2023-03-06T03:05:33.407Z,28.61
2023-03-06T03:07:59.772Z,29.77
2023-03-06T03:10:26.161Z,28.56
2023-03-06T03:12:52.513Z,28.44
2023-03-06T03:15:18.909Z,27.58
2023-03-06T03:17:45.296Z,28.20
2023-03-06T03:20:11.725Z,28.04
2023-03-06T03:22:38.083Z,28.94
2023-03-06T03:25:04.451Z,29.74
2023-03-06T03:27:30.812Z,30.14
2023-03-06T03:29:57.232Z,29.58
2023-03-06T03:32:23.650Z,28.69
2023-03-06T03:34:50.005Z,28.53
2023-03-06T03:37:16.391Z,28.83
2023-03-06T03:39:42.777Z,28.84
2023-03-06T03:42:09.178Z,28.63
2023-03-06T03:44:35.568Z,28.98
2023-03-06T03:47:01.935Z,27.47
2023-03-06T03:49:28.300Z,28.14
2023-03-06T03:51:54.699Z,28.11
2023-03-06T03:54:21.097Z,28.66
2023-03-06T03:56:47.496Z,28.50
2023-03-06T03:59:13.853Z,29.37
2023-03-06T04:01:40.219Z,29.27
2023-03-06T04:04:06.609Z,30.05
2023-03-06T04:06:33.010Z,29.65
2023-03-06T04:08:59.415Z,29.73
2023-03-06T04:11:25.775Z,30.00
2023-03-06T04:13:52.137Z,29.67
2023-03-06T04:16:18.552Z,30.59
2023-03-06T04:18:44.981Z,30.81
2023-03-06T04:21:11.374Z,30.69
2023-03-06T04:23:37.783Z,31.12
2023-03-06T04:26:04.186Z,30.36
2023-03-06T04:28:30.595Z,30.01
2023-03-06T04:30:56.998Z,30.79
2023-03-06T04:33:23.371Z,30.30
2023-03-06T04:35:49.776Z,30.19
2023-03-06T04:38:16.150Z,30.09
2023-03-06T04:40:44.572Z,29.95
2023-03-06T04:43:11.358Z,31.12
2023-03-06T04:45:37.795Z,31.07
2023-03-06T04:48:04.176Z,32.39
2023-03-06T04:50:30.532Z,32.28
2023-03-06T04:52:56.917Z,33.90
2023-03-06T04:55:23.318Z,33.50
2023-03-06T04:57:49.733Z,32.74
2023-03-06T05:00:16.123Z,33.06
2023-03-06T05:02:42.521Z,33.71
2023-03-06T05:05:08.881Z,33.57
2023-03-06T05:07:35.227Z,34.40
2023-03-06T05:10:01.568Z,33.42
2023-03-06T05:12:27.904Z,33.73
2023-03-06T05:14:54.250Z,35.05
2023-03-06T05:17:20.647Z,33.65
2023-03-06T05:19:47.012Z,34.67
2023-03-06T05:22:13.371Z,33.04
2023-03-06T05:24:39.759Z,32.82
2023-03-06T05:27:06.134Z,35.09
2023-03-06T05:29:32.500Z,32.78
2023-03-06T05:31:58.990Z,33.71
2023-03-06T05:34:25.406Z,34.90
2023-03-06T05:36:51.779Z,34.22
2023-03-06T05:39:18.168Z,32.74
2023-03-06T05:41:44.583Z,34.02
2023-03-06T05:44:10.994Z,33.18
2023-03-06T05:46:37.355Z,33.55
2023-03-06T05:49:03.765Z,32.53
2023-03-06T05:51:30.186Z,34.54
2023-03-06T05:53:56.599Z,35.69
2023-03-06T05:56:23.000Z,34.45
2023-03-06T05:58:49.361Z,33.64
2023-03-06T06:01:15.763Z,33.96
2023-03-06T06:03:42.211Z,33.41
2023-03-06T06:06:08.594Z,33.30
2023-03-06T06:08:34.962Z,33.36
2023-03-06T06:11:01.350Z,32.76
2023-03-06T06:13:27.736Z,33.05
2023-03-06T06:15:54.184Z,32.67
2023-03-06T06:18:20.591Z,32.96
2023-03-06T06:20:47.009Z,33.59
2023-03-06T06:23:13.406Z,32.98
2023-03-06T06:25:39.804Z,32.64
2023-03-06T06:28:06.159Z,31.72
2023-03-06T06:30:32.520Z,31.96
2023-03-06T06:32:58.925Z,31.31
2023-03-06T06:35:25.349Z,31.84
2023-03-06T06:37:51.763Z,31.19
2023-03-06T06:40:18.167Z,31.28
2023-03-06T06:42:44.642Z,31.24
2023-03-06T06:45:11.029Z,32.26
2023-03-06T06:47:37.464Z,31.86
2023-03-06T06:50:03.868Z,31.92
2023-03-06T06:52:30.230Z,33.20
2023-03-06T06:54:56.584Z,33.72
2023-03-06T06:57:22.934Z,35.53
2023-03-06T06:59:50.718Z,34.92
2023-03-06T07:02:18.766Z,35.65
2023-03-06T07:05:02.048Z,34.82
2023-03-06T07:07:29.785Z,35.98
2023-03-06T07:09:56.160Z,35.50
2023-03-06T07:12:22.551Z,35.59
2023-03-06T07:14:48.927Z,35.76
2023-03-06T07:17:15.313Z,36.26
2023-03-06T07:19:41.707Z,35.69
2023-03-06T07:22:08.123Z,38.05
2023-03-06T07:24:34.690Z,38.61
2023-03-06T07:27:01.103Z,40.29
2023-03-06T07:29:27.524Z,39.04
2023-03-06T07:31:53.874Z,37.38
2023-03-06T07:34:20.261Z,36.06
2023-03-06T07:36:46.687Z,35.80
2023-03-06T07:39:13.072Z,36.58
2023-03-06T07:41:39.461Z,36.16
2023-03-06T07:44:05.826Z,36.10
2023-03-06T07:46:32.302Z,36.70
2023-03-06T07:48:58.691Z,34.42
2023-03-06T07:51:25.056Z,33.54
2023-03-06T07:53:51.452Z,33.40
2023-03-06T07:56:17.867Z,32.54
2023-03-06T07:58:44.252Z,32.56
2023-03-06T08:01:10.600Z,32.62
2023-03-06T08:03:36.973Z,32.61
2023-03-06T08:06:03.387Z,33.83
2023-03-06T08:08:29.847Z,34.68
2023-03-06T08:10:56.203Z,34.77
2023-03-06T08:13:22.543Z,33.60
2023-03-06T08:15:48.901Z,35.07
2023-03-06T08:18:15.251Z,35.35
2023-03-06T08:20:41.641Z,35.40
2023-03-06T08:23:08.065Z,36.56
2023-03-06T08:25:34.435Z,37.12
2023-03-06T08:28:02.879Z,37.84
2023-03-06T08:30:29.269Z,37.99
2023-03-06T08:32:55.694Z,39.05
2023-03-06T08:35:22.164Z,38.54
2023-03-06T08:37:48.579Z,39.22
2023-03-06T08:40:14.944Z,39.56
2023-03-06T08:42:41.317Z,40.75
2023-03-06T08:45:07.685Z,40.87
2023-03-06T08:47:34.080Z,41.37
2023-03-06T08:50:00.883Z,41.76
2023-03-06T08:52:27.314Z,41.65
2023-03-06T08:54:53.728Z,42.57
2023-03-06T08:57:20.100Z,41.47
2023-03-06T08:59:46.495Z,42.61
2023-03-06T09:02:12.949Z,41.06
2023-03-06T09:04:39.347Z,41.83
2023-03-06T09:07:05.747Z,42.77
2023-03-06T09:09:32.154Z,42.01
2023-03-06T09:11:58.556Z,41.38
2023-03-06T09:14:24.958Z,41.42
2023-03-06T09:16:51.397Z,42.56
2023-03-06T09:19:17.800Z,41.58
2023-03-06T09:21:44.195Z,42.60
2023-03-06T09:24:10.611Z,41.75
2023-03-06T09:26:45.557Z,42.25
2023-03-06T09:29:12.840Z,43.82
2023-03-06T09:31:39.264Z,44.10
2023-03-06T09:34:05.646Z,42.82
2023-03-06T09:36:34.409Z,43.42
2023-03-06T09:39:06.532Z,43.82
2023-03-06T09:41:32.900Z,43.39
2023-03-06T09:43:59.287Z,43.97
2023-03-06T09:46:25.756Z,45.97
2023-03-06T09:48:52.194Z,43.76
2023-03-06T09:51:18.602Z,44.52
2023-03-06T09:53:44.960Z,45.55
2023-03-06T09:56:11.379Z,45.38
2023-03-06T09:58:37.788Z,45.26
2023-03-06T10:01:04.186Z,45.08
2023-03-06T10:03:31.690Z,45.13
2023-03-06T10:05:58.067Z,45.40
2023-03-06T10:08:24.419Z,45.59
2023-03-06T10:10:50.818Z,45.24
2023-03-06T10:13:17.214Z,44.76
2023-03-06T10:15:43.626Z,43.68
2023-03-06T10:18:10.050Z,44.29
2023-03-06T10:20:36.457Z,43.28
2023-03-06T10:23:05.174Z,42.32
2023-03-06T10:25:31.829Z,43.56
2023-03-06T10:27:58.204Z,42.74
2023-03-06T10:30:24.606Z,42.65
2023-03-06T10:32:51.017Z,42.13
2023-03-06T10:35:17.421Z,41.97
2023-03-06T10:37:43.842Z,41.46
2023-03-06T10:40:10.246Z,42.61
2023-03-06T10:42:36.747Z,42.14
2023-03-06T10:45:03.180Z,42.05
2023-03-06T10:47:29.634Z,42.55
2023-03-06T10:49:55.988Z,43.13
2023-03-06T10:52:22.382Z,43.75
2023-03-06T10:54:48.761Z,44.55
2023-03-06T10:57:15.153Z,44.37
2023-03-06T10:59:41.509Z,45.53
2023-03-06T11:02:07.859Z,81.52
2023-03-06T11:04:34.278Z,68.31
2023-03-06T11:07:00.688Z,49.68
2023-03-06T11:09:27.091Z,44.81
2023-03-06T11:11:53.497Z,45.38
2023-03-06T11:14:19.861Z,44.16
2023-03-06T11:16:46.254Z,43.91
2023-03-06T11:19:12.617Z,44.49
2023-03-06T11:21:38.963Z,44.18
2023-03-06T11:24:05.366Z,43.49
2023-03-06T11:26:31.781Z,41.33
2023-03-06T11:28:58.187Z,40.72
2023-03-06T11:31:24.577Z,41.66
2023-03-06T11:33:51.060Z,42.77
2023-03-06T11:36:17.466Z,43.21
2023-03-06T11:38:43.828Z,43.47
2023-03-06T11:41:10.219Z,45.39
2023-03-06T11:43:36.632Z,45.17
2023-03-06T11:46:03.046Z,46.62
2023-03-06T11:48:29.448Z,46.20
2023-03-06T11:50:55.849Z,45.67
2023-03-06T11:53:22.246Z,46.98
2023-03-06T11:55:48.662Z,45.63
2023-03-06T11:58:15.070Z,44.44
2023-03-06T12:00:41.431Z,44.14
2023-03-06T12:03:07.791Z,43.53
2023-03-06T12:05:34.219Z,39.96
2023-03-06T12:08:00.603Z,39.96
2023-03-06T12:10:26.993Z,60.12
2023-03-06T12:12:53.389Z,49.46
2023-03-06T12:15:19.755Z,41.89
2023-03-06T12:17:46.143Z,41.46
2023-03-06T12:20:12.501Z,42.60
2023-03-06T12:22:38.857Z,42.17
2023-03-06T12:25:05.301Z,41.83
2023-03-06T12:27:31.654Z,41.08
2023-03-06T12:29:58.044Z,47.71
2023-03-06T12:32:24.467Z,40.31
2023-03-06T12:34:50.840Z,40.25
2023-03-06T12:37:17.238Z,40.15
2023-03-06T12:39:43.588Z,40.64
2023-03-06T12:42:17.832Z,40.70
2023-03-06T12:44:48.927Z,39.95
2023-03-06T12:47:15.347Z,41.27
2023-03-06T12:49:41.712Z,40.18
2023-03-06T12:52:08.225Z,40.89
2023-03-06T12:54:34.612Z,40.05
2023-03-06T12:57:01.021Z,40.24
2023-03-06T12:59:27.427Z,42.15
2023-03-06T13:01:53.837Z,42.34
2023-03-06T13:04:20.282Z,43.23
2023-03-06T13:06:50.816Z,44.29
2023-03-06T13:09:17.706Z,41.59
2023-03-06T13:11:44.073Z,43.57
2023-03-06T13:14:10.480Z,43.98
2023-03-06T13:16:36.923Z,41.88
2023-03-06T13:19:03.336Z,41.26
2023-03-06T13:21:29.757Z,42.17
2023-03-06T13:23:56.121Z,41.23
2023-03-06T13:26:22.526Z,41.53
2023-03-06T13:28:48.893Z,41.35
2023-03-06T13:31:26.526Z,42.21
2023-03-06T13:33:53.514Z,41.50
2023-03-06T13:36:20.137Z,41.76
2023-03-06T13:38:46.542Z,42.06
2023-03-06T13:41:12.954Z,41.85
2023-03-06T13:43:39.352Z,40.45
2023-03-06T13:46:05.749Z,39.90
2023-03-06T13:48:47.346Z,38.97
2023-03-06T13:51:13.740Z,38.48
2023-03-06T13:53:40.190Z,38.31
2023-03-06T13:56:06.644Z,39.51
2023-03-06T13:58:33.023Z,39.22
2023-03-06T14:00:59.448Z,39.15
2023-03-06T14:03:25.807Z,37.90
2023-03-06T14:05:52.215Z,37.78
2023-03-06T14:08:18.596Z,36.54
2023-03-06T14:10:44.950Z,35.81
2023-03-06T14:13:11.307Z,35.79
2023-03-06T14:15:37.710Z,34.08
2023-03-06T14:18:04.117Z,35.57
2023-03-06T14:20:30.520Z,36.28
2023-03-06T14:22:56.887Z,37.04
2023-03-06T14:25:23.314Z,35.33
2023-03-06T14:27:49.730Z,33.37
2023-03-06T14:30:16.134Z,32.19
2023-03-06T14:32:42.628Z,30.32
2023-03-06T14:35:08.996Z,31.14
2023-03-06T14:37:35.397Z,32.11
2023-03-06T14:40:01.805Z,32.53
2023-03-06T14:42:28.194Z,33.83
2023-03-06T14:44:54.569Z,33.41
2023-03-06T14:47:20.969Z,35.41
2023-03-06T14:49:47.375Z,33.56
2023-03-06T14:52:13.794Z,34.47
2023-03-06T14:54:40.213Z,33.75
2023-03-06T14:57:06.654Z,32.36
2023-03-06T14:59:33.067Z,31.84
2023-03-06T15:01:59.571Z,30.44
2023-03-06T15:04:25.984Z,30.42
2023-03-06T15:06:52.416Z,31.89
2023-03-06T15:09:18.811Z,30.99
2023-03-06T15:11:45.184Z,32.78
2023-03-06T15:14:11.570Z,34.99
2023-03-06T15:16:38.067Z,35.47
2023-03-06T15:19:04.464Z,35.12
2023-03-06T15:21:30.859Z,34.18
2023-03-06T15:23:57.218Z,32.98
2023-03-06T15:26:23.635Z,33.69
2023-03-06T15:28:52.185Z,32.70
2023-03-06T15:31:20.692Z,29.36
2023-03-06T15:33:47.095Z,24.26
2023-03-06T15:36:13.484Z,20.12
2023-03-06T15:38:39.905Z,24.27
2023-03-06T15:41:06.277Z,24.71
2023-03-06T15:43:32.644Z,24.21
2023-03-06T15:45:59.178Z,21.95
2023-03-06T15:48:25.678Z,21.47
2023-03-06T15:50:52.057Z,20.56
2023-03-06T15:53:18.432Z,22.13
2023-03-06T15:55:44.828Z,18.90
2023-03-06T15:58:11.199Z,15.57
2023-03-06T16:00:37.557Z,14.40
2023-03-06T16:03:03.916Z,11.73
2023-03-06T16:05:30.266Z,10.35
2023-03-06T16:07:56.608Z,9.91
2023-03-06T16:10:22.957Z,10.20
2023-03-06T16:12:49.316Z,10.58
2023-03-06T16:15:15.701Z,10.03
2023-03-06T16:17:42.051Z,10.24
2023-03-06T16:20:08.444Z,10.38
2023-03-06T16:22:34.811Z,10.68
2023-03-06T16:25:01.163Z,10.77
2023-03-06T16:27:27.547Z,10.80
2023-03-06T16:29:54.026Z,10.89
2023-03-06T16:32:20.444Z,10.74
2023-03-06T16:34:46.859Z,10.79
2023-03-06T16:37:13.247Z,10.34
2023-03-06T16:39:39.633Z,10.25
2023-03-06T16:42:06.008Z,10.89
2023-03-06T16:44:32.394Z,11.20
2023-03-06T16:46:58.750Z,11.29
2023-03-06T16:49:25.232Z,11.39
2023-03-06T16:51:51.670Z,11.88
2023-03-06T16:54:18.046Z,12.90
2023-03-06T16:56:44.407Z,13.25
2023-03-06T16:59:10.792Z,12.87
2023-03-06T17:01:37.251Z,13.36
2023-03-06T17:04:03.712Z,12.94
2023-03-06T17:06:30.113Z,13.73
2023-03-06T17:08:56.476Z,13.72
2023-03-06T17:11:22.823Z,13.46
2023-03-06T17:13:49.241Z,13.36
2023-03-06T17:16:15.682Z,13.47
2023-03-06T17:18:42.046Z,13.21
2023-03-06T17:21:08.436Z,12.84
2023-03-06T17:23:34.836Z,12.89
2023-03-06T17:26:01.229Z,13.10
2023-03-06T17:28:27.585Z,13.27
2023-03-06T17:30:53.984Z,24.43
2023-03-06T17:33:20.398Z,32.96
2023-03-06T17:35:46.836Z,68.07
2023-03-06T17:38:13.231Z,16.04
2023-03-06T17:40:39.614Z,11.57
2023-03-06T17:43:05.961Z,11.63
2023-03-06T17:45:32.312Z,11.47
2023-03-06T17:47:58.705Z,11.57
2023-03-06T17:50:25.065Z,11.35
2023-03-06T17:52:51.449Z,11.16
2023-03-06T17:55:17.846Z,11.38
2023-03-06T17:57:44.192Z,10.43
2023-03-06T18:00:10.600Z,10.40
2023-03-06T18:02:37.023Z,10.86
2023-03-06T18:05:03.409Z,10.83
2023-03-06T18:07:29.868Z,10.80
2023-03-06T18:09:56.220Z,10.00
2023-03-06T18:12:22.584Z,10.41
2023-03-06T18:14:48.976Z,10.27
2023-03-06T18:17:15.330Z,10.34
2023-03-06T18:19:41.682Z,10.62
2023-03-06T18:22:08.039Z,10.21
2023-03-06T18:24:34.389Z,10.52
2023-03-06T18:27:00.775Z,10.92
2023-03-06T18:29:27.176Z,11.24
2023-03-06T18:31:53.553Z,11.84
2023-03-06T18:34:19.957Z,16.03
2023-03-06T18:36:46.353Z,18.24
2023-03-06T18:39:12.745Z,12.77
2023-03-06T18:41:39.123Z,11.68
2023-03-06T18:44:05.522Z,11.98
2023-03-06T18:46:31.928Z,12.25
2023-03-06T18:48:58.297Z,12.44
2023-03-06T18:51:24.644Z,12.70
2023-03-06T18:53:51.039Z,13.26
2023-03-06T18:56:17.394Z,13.22
2023-03-06T18:58:43.778Z,14.52
2023-03-06T19:01:10.195Z,17.29
2023-03-06T19:03:36.637Z,29.07
2023-03-06T19:06:03.064Z,31.05
2023-03-06T19:08:29.463Z,23.69
2023-03-06T19:10:55.858Z,16.41
2023-03-06T19:13:22.250Z,13.53
2023-03-06T19:15:48.623Z,13.53
2023-03-06T19:18:15.002Z,13.63
2023-03-06T19:20:41.385Z,13.50
2023-03-06T19:23:07.803Z,14.37
2023-03-06T19:25:34.158Z,14.24
2023-03-06T19:28:00.520Z,14.60
2023-03-06T19:30:26.916Z,14.51
2023-03-06T19:32:53.331Z,14.80
2023-03-06T19:35:19.818Z,14.77
2023-03-06T19:37:46.251Z,14.76
2023-03-06T19:40:12.683Z,15.30
2023-03-06T19:42:39.039Z,14.96
2023-03-06T19:45:05.437Z,14.57
2023-03-06T19:47:31.791Z,14.70
2023-03-06T19:49:58.183Z,15.17
2023-03-06T19:52:24.561Z,15.03
2023-03-06T19:54:50.901Z,14.87
2023-03-06T19:57:17.270Z,14.55
2023-03-06T19:59:43.654Z,14.59
2023-03-06T20:02:10.052Z,14.71
2023-03-06T20:04:36.458Z,15.43
2023-03-06T20:07:02.820Z,14.82
2023-03-06T20:09:29.168Z,14.97
2023-03-06T20:11:55.554Z,15.22
2023-03-06T20:14:21.960Z,14.93
2023-03-06T20:16:48.355Z,15.08
2023-03-06T20:19:14.707Z,14.61
2023-03-06T20:21:41.051Z,14.48
2023-03-06T20:24:07.413Z,15.07
2023-03-06T20:26:33.843Z,14.67
2023-03-06T20:29:00.258Z,14.77
2023-03-06T20:31:26.688Z,14.80
2023-03-06T20:33:53.137Z,14.14
2023-03-06T20:36:19.517Z,15.05
2023-03-06T20:38:45.864Z,14.93
2023-03-06T20:41:12.228Z,14.82
2023-03-06T20:43:38.583Z,15.18
2023-03-06T20:46:05.047Z,15.20
2023-03-06T20:48:31.423Z,15.40
2023-03-06T20:50:57.772Z,15.46
2023-03-06T20:53:24.121Z,15.09
2023-03-06T20:55:50.471Z,15.24
2023-03-06T20:58:16.864Z,15.33
2023-03-06T21:00:43.215Z,15.08
2023-03-06T21:03:09.561Z,14.75
2023-03-06T21:05:35.950Z,14.74
2023-03-06T21:08:02.323Z,14.79
2023-03-06T21:10:28.670Z,14.81
2023-03-06T21:12:55.049Z,14.98
2023-03-06T21:15:21.504Z,15.29
2023-03-06T21:17:47.861Z,15.32
2023-03-06T21:20:14.257Z,15.12
2023-03-06T21:22:40.660Z,14.79
2023-03-06T21:25:07.016Z,15.23
2023-03-06T21:27:33.419Z,15.33
2023-03-06T21:29:59.771Z,15.03
2023-03-06T21:32:26.184Z,14.74
2023-03-06T21:34:52.639Z,15.21
2023-03-06T21:37:19.000Z,15.17
2023-03-06T21:39:45.341Z,15.14
2023-03-06T21:42:11.733Z,14.73
2023-03-06T21:44:38.147Z,14.76
2023-03-06T21:47:04.558Z,14.46
2023-03-06T21:49:30.909Z,15.01
2023-03-06T21:51:57.309Z,14.64
2023-03-06T21:54:23.748Z,14.69
2023-03-06T21:56:50.125Z,14.65
2023-03-06T21:59:16.492Z,14.48
2023-03-06T22:01:42.858Z,14.37
2023-03-06T22:04:09.215Z,13.98
2023-03-06T22:06:35.705Z,14.41
2023-03-06T22:09:02.101Z,14.69
2023-03-06T22:11:28.492Z,14.86
2023-03-06T22:13:54.849Z,15.76
2023-03-06T22:16:21.284Z,16.06
2023-03-06T22:18:47.655Z,15.88
2023-03-06T22:21:14.013Z,15.82
2023-03-06T22:23:40.360Z,19.20
2023-03-06T22:26:06.778Z,21.46
2023-03-06T22:28:33.190Z,18.48
2023-03-06T22:30:59.556Z,16.78
2023-03-06T22:33:25.941Z,16.01
2023-03-06T22:35:52.413Z,15.16
2023-03-06T22:38:18.815Z,14.43
2023-03-06T22:40:45.221Z,14.31
2023-03-06T22:43:11.584Z,14.38
2023-03-06T22:45:38.042Z,14.41
2023-03-06T22:48:10.818Z,14.30
2023-03-06T22:50:37.711Z,14.79
2023-03-06T22:53:04.120Z,14.45
2023-03-06T22:55:30.491Z,14.54
2023-03-06T22:57:56.839Z,14.12
2023-03-06T23:00:23.230Z,13.74
2023-03-06T23:02:49.640Z,14.38
2023-03-06T23:05:16.038Z,13.86
2023-03-06T23:07:42.404Z,14.28
2023-03-06T23:10:08.761Z,13.72
2023-03-06T23:12:35.149Z,14.44
2023-03-06T23:15:01.585Z,13.84
2023-03-06T23:17:27.988Z,13.61
2023-03-06T23:19:54.341Z,13.63
2023-03-06T23:22:20.744Z,14.16
2023-03-06T23:24:47.315Z,13.77
2023-03-06T23:27:13.693Z,13.90
2023-03-06T23:29:40.060Z,13.89
2023-03-06T23:32:06.458Z,13.52
2023-03-06T23:34:32.867Z,14.18
2023-03-06T23:36:59.271Z,13.82
2023-03-06T23:39:25.653Z,13.45
2023-03-06T23:41:52.010Z,13.69
2023-03-06T23:44:18.427Z,13.09
2023-03-06T23:46:44.778Z,13.99
2023-03-06T23:49:11.132Z,13.95
2023-03-06T23:51:37.530Z,14.13
2023-03-06T23:54:03.904Z,14.40
2023-03-06T23:56:30.298Z,14.58
2023-03-06T23:58:56.644Z,14.65
